sensor_id;sensor_type;location;lat;lon;timestamp;P1;durP1;ratioP1;P2;durP2;ratioP2
11988;SDS011;6054;50.966;7.094;2023-05-10T00:00:37;61.92;;;10.93;;
11988;SDS011;6054;50.966;7.094;2023-05-10T00:03:03;65.43;;;11.82;;
11988;SDS011;6054;50.966;7.094;2023-05-10T00:05:30;39.53;;;9.52;;
11988;SDS011;6054;50.966;7.094;2023-05-10T00:07:58;46.22;;;10.07;;
11988;SDS011;6054;50.966;7.094;2023-05-10T00:10:25;41.78;;;10.20;;
11988;SDS011;6054;50.966;7.094;2023-05-10T00:12:52;54.90;;;10.95;;
11988;SDS011;6054;50.966;7.094;2023-05-10T00:15:19;93.97;;;13.18;;
11988;SDS011;6054;50.966;7.094;2023-05-10T00:17:46;47.53;;;10.27;;
11988;SDS011;6054;50.966;7.094;2023-05-10T00:20:13;136.45;;;16.35;;
11988;SDS011;6054;50.966;7.094;2023-05-10T00:22:40;84.40;;;11.63;;
11988;SDS011;6054;50.966;7.094;2023-05-10T00:25:08;33.25;;;9.88;;
11988;SDS011;6054;50.966;7.094;2023-05-10T00:27:36;53.63;;;11.15;;
11988;SDS011;6054;50.966;7.094;2023-05-10T00:30:03;26.75;;;9.60;;
11988;SDS011;6054;50.966;7.094;2023-05-10T00:32:30;28.30;;;10.00;;
11988;SDS011;6054;50.966;7.094;2023-05-10T00:34:57;66.90;;;12.57;;
11988;SDS011;6054;50.966;7.094;2023-05-10T00:37:23;95.20;;;13.93;;
11988;SDS011;6054;50.966;7.094;2023-05-10T00:39:50;93.22;;;13.95;;
11988;SDS011;6054;50.966;7.094;2023-05-10T00:42:18;138.77;;;17.17;;
11988;SDS011;6054;50.966;7.094;2023-05-10T00:44:45;47.80;;;11.38;;
11988;SDS011;6054;50.966;7.094;2023-05-10T00:47:12;103.93;;;15.60;;
11988;SDS011;6054;50.966;7.094;2023-05-10T00:49:39;91.25;;;14.63;;
11988;SDS011;6054;50.966;7.094;2023-05-10T00:52:06;98.75;;;15.02;;
11988;SDS011;6054;50.966;7.094;2023-05-10T00:54:34;45.42;;;11.63;;
11988;SDS011;6054;50.966;7.094;2023-05-10T00:57:00;109.38;;;15.52;;
11988;SDS011;6054;50.966;7.094;2023-05-10T00:59:29;87.80;;;15.00;;
11988;SDS011;6054;50.966;7.094;2023-05-10T01:01:56;96.47;;;14.68;;
11988;SDS011;6054;50.966;7.094;2023-05-10T01:04:24;102.93;;;15.10;;
11988;SDS011;6054;50.966;7.094;2023-05-10T01:06:51;90.72;;;15.43;;
11988;SDS011;6054;50.966;7.094;2023-05-10T01:09:18;74.00;;;14.73;;
11988;SDS011;6054;50.966;7.094;2023-05-10T01:11:46;71.97;;;14.30;;
11988;SDS011;6054;50.966;7.094;2023-05-10T01:14:13;63.45;;;13.63;;
11988;SDS011;6054;50.966;7.094;2023-05-10T01:16:45;86.07;;;14.70;;
11988;SDS011;6054;50.966;7.094;2023-05-10T01:19:17;61.35;;;13.63;;
11988;SDS011;6054;50.966;7.094;2023-05-10T01:21:48;44.45;;;13.63;;
11988;SDS011;6054;50.966;7.094;2023-05-10T01:27:41;40.92;;;13.30;;
11988;SDS011;6054;50.966;7.094;2023-05-10T01:30:32;66.43;;;15.70;;
11988;SDS011;6054;50.966;7.094;2023-05-10T01:33:15;101.03;;;16.73;;
11988;SDS011;6054;50.966;7.094;2023-05-10T01:35:46;63.80;;;15.38;;
11988;SDS011;6054;50.966;7.094;2023-05-10T01:38:19;42.88;;;13.52;;
11988;SDS011;6054;50.966;7.094;2023-05-10T01:40:55;28.65;;;12.77;;
11988;SDS011;6054;50.966;7.094;2023-05-10T01:43:32;57.97;;;15.10;;
11988;SDS011;6054;50.966;7.094;2023-05-10T01:46:07;122.00;;;18.17;;
11988;SDS011;6054;50.966;7.094;2023-05-10T01:48:43;91.57;;;16.58;;
11988;SDS011;6054;50.966;7.094;2023-05-10T01:51:14;129.85;;;18.63;;
11988;SDS011;6054;50.966;7.094;2023-05-10T01:53:54;73.50;;;15.35;;
11988;SDS011;6054;50.966;7.094;2023-05-10T01:56:25;88.43;;;17.38;;
11988;SDS011;6054;50.966;7.094;2023-05-10T01:58:54;106.13;;;17.75;;
11988;SDS011;6054;50.966;7.094;2023-05-10T02:01:22;49.13;;;14.95;;
11988;SDS011;6054;50.966;7.094;2023-05-10T02:03:52;38.55;;;14.10;;
11988;SDS011;6054;50.966;7.094;2023-05-10T02:06:22;28.80;;;11.93;;
11988;SDS011;6054;50.966;7.094;2023-05-10T02:08:52;28.38;;;11.88;;
11988;SDS011;6054;50.966;7.094;2023-05-10T02:11:19;31.38;;;12.55;;
11988;SDS011;6054;50.966;7.094;2023-05-10T02:13:47;42.00;;;13.68;;
11988;SDS011;6054;50.966;7.094;2023-05-10T02:16:16;20.88;;;10.43;;
11988;SDS011;6054;50.966;7.094;2023-05-10T02:18:44;15.07;;;8.73;;
11988;SDS011;6054;50.966;7.094;2023-05-10T02:21:13;18.80;;;9.35;;
11988;SDS011;6054;50.966;7.094;2023-05-10T02:23:42;21.15;;;9.20;;
11988;SDS011;6054;50.966;7.094;2023-05-10T02:26:09;19.80;;;8.60;;
11988;SDS011;6054;50.966;7.094;2023-05-10T02:28:38;24.15;;;9.02;;
11988;SDS011;6054;50.966;7.094;2023-05-10T02:31:06;28.13;;;10.25;;
11988;SDS011;6054;50.966;7.094;2023-05-10T02:33:34;24.63;;;8.82;;
11988;SDS011;6054;50.966;7.094;2023-05-10T02:36:02;13.80;;;7.38;;
11988;SDS011;6054;50.966;7.094;2023-05-10T02:38:31;18.80;;;7.75;;
11988;SDS011;6054;50.966;7.094;2023-05-10T02:41:00;13.90;;;7.18;;
11988;SDS011;6054;50.966;7.094;2023-05-10T02:43:28;18.60;;;8.02;;
11988;SDS011;6054;50.966;7.094;2023-05-10T02:45:58;21.48;;;8.40;;
11988;SDS011;6054;50.966;7.094;2023-05-10T02:48:25;25.38;;;8.73;;
11988;SDS011;6054;50.966;7.094;2023-05-10T02:50:52;18.40;;;7.63;;
11988;SDS011;6054;50.966;7.094;2023-05-10T02:53:23;24.77;;;7.90;;
11988;SDS011;6054;50.966;7.094;2023-05-10T02:55:58;17.25;;;7.05;;
11988;SDS011;6054;50.966;7.094;2023-05-10T02:58:28;9.77;;;6.50;;
11988;SDS011;6054;50.966;7.094;2023-05-10T03:00:55;15.25;;;7.22;;
11988;SDS011;6054;50.966;7.094;2023-05-10T03:03:22;16.17;;;7.28;;
11988;SDS011;6054;50.966;7.094;2023-05-10T03:05:49;15.75;;;6.78;;
11988;SDS011;6054;50.966;7.094;2023-05-10T03:08:15;17.05;;;6.85;;
11988;SDS011;6054;50.966;7.094;2023-05-10T03:10:45;18.27;;;7.25;;
11988;SDS011;6054;50.966;7.094;2023-05-10T03:13:24;14.52;;;7.10;;
11988;SDS011;6054;50.966;7.094;2023-05-10T03:16:03;28.42;;;8.93;;
11988;SDS011;6054;50.966;7.094;2023-05-10T03:18:37;22.02;;;7.82;;
11988;SDS011;6054;50.966;7.094;2023-05-10T03:21:10;30.92;;;9.40;;
11988;SDS011;6054;50.966;7.094;2023-05-10T03:23:40;25.05;;;8.02;;
11988;SDS011;6054;50.966;7.094;2023-05-10T03:26:09;16.00;;;7.57;;
11988;SDS011;6054;50.966;7.094;2023-05-10T03:28:43;14.15;;;7.63;;
11988;SDS011;6054;50.966;7.094;2023-05-10T03:31:10;15.35;;;7.28;;
11988;SDS011;6054;50.966;7.094;2023-05-10T03:33:45;18.70;;;7.63;;
11988;SDS011;6054;50.966;7.094;2023-05-10T03:36:12;26.05;;;8.55;;
11988;SDS011;6054;50.966;7.094;2023-05-10T03:38:39;15.88;;;7.43;;
11988;SDS011;6054;50.966;7.094;2023-05-10T03:41:06;20.63;;;7.65;;
11988;SDS011;6054;50.966;7.094;2023-05-10T03:43:33;19.42;;;7.53;;
11988;SDS011;6054;50.966;7.094;2023-05-10T03:46:02;17.67;;;6.82;;
11988;SDS011;6054;50.966;7.094;2023-05-10T03:48:29;24.17;;;8.05;;
11988;SDS011;6054;50.966;7.094;2023-05-10T03:50:56;34.47;;;8.75;;
11988;SDS011;6054;50.966;7.094;2023-05-10T03:53:23;28.70;;;8.77;;
11988;SDS011;6054;50.966;7.094;2023-05-10T03:55:49;27.83;;;8.18;;
11988;SDS011;6054;50.966;7.094;2023-05-10T03:58:16;24.38;;;8.35;;
11988;SDS011;6054;50.966;7.094;2023-05-10T04:00:43;35.25;;;10.15;;
11988;SDS011;6054;50.966;7.094;2023-05-10T04:03:12;25.40;;;9.10;;
11988;SDS011;6054;50.966;7.094;2023-05-10T04:05:39;30.10;;;8.65;;
11988;SDS011;6054;50.966;7.094;2023-05-10T04:08:06;27.25;;;9.25;;
11988;SDS011;6054;50.966;7.094;2023-05-10T04:10:32;32.90;;;9.68;;
11988;SDS011;6054;50.966;7.094;2023-05-10T04:12:59;48.08;;;11.10;;
11988;SDS011;6054;50.966;7.094;2023-05-10T04:15:26;28.75;;;9.00;;
11988;SDS011;6054;50.966;7.094;2023-05-10T04:17:53;28.13;;;9.50;;
11988;SDS011;6054;50.966;7.094;2023-05-10T04:20:21;32.85;;;9.27;;
11988;SDS011;6054;50.966;7.094;2023-05-10T04:22:48;38.10;;;10.23;;
11988;SDS011;6054;50.966;7.094;2023-05-10T04:25:15;41.63;;;11.07;;
11988;SDS011;6054;50.966;7.094;2023-05-10T04:27:42;36.95;;;10.95;;
11988;SDS011;6054;50.966;7.094;2023-05-10T04:30:09;31.33;;;10.27;;
11988;SDS011;6054;50.966;7.094;2023-05-10T04:32:36;27.90;;;9.95;;
11988;SDS011;6054;50.966;7.094;2023-05-10T04:35:03;42.40;;;11.07;;
11988;SDS011;6054;50.966;7.094;2023-05-10T04:37:31;34.78;;;10.88;;
11988;SDS011;6054;50.966;7.094;2023-05-10T04:39:58;82.25;;;15.52;;
11988;SDS011;6054;50.966;7.094;2023-05-10T04:42:25;95.05;;;16.40;;
11988;SDS011;6054;50.966;7.094;2023-05-10T04:44:52;49.35;;;12.93;;
11988;SDS011;6054;50.966;7.094;2023-05-10T04:47:19;41.40;;;12.00;;
11988;SDS011;6054;50.966;7.094;2023-05-10T04:49:46;51.83;;;12.75;;
11988;SDS011;6054;50.966;7.094;2023-05-10T04:52:12;72.38;;;14.18;;
11988;SDS011;6054;50.966;7.094;2023-05-10T04:54:42;36.35;;;12.23;;
11988;SDS011;6054;50.966;7.094;2023-05-10T04:57:09;56.00;;;12.70;;
11988;SDS011;6054;50.966;7.094;2023-05-10T04:59:35;58.28;;;13.57;;
11988;SDS011;6054;50.966;7.094;2023-05-10T05:02:02;26.08;;;11.57;;
11988;SDS011;6054;50.966;7.094;2023-05-10T05:04:29;25.00;;;11.82;;
11988;SDS011;6054;50.966;7.094;2023-05-10T05:06:56;25.33;;;12.25;;
11988;SDS011;6054;50.966;7.094;2023-05-10T05:09:23;40.85;;;14.68;;
11988;SDS011;6054;50.966;7.094;2023-05-10T05:11:51;42.88;;;14.75;;
11988;SDS011;6054;50.966;7.094;2023-05-10T05:14:18;34.53;;;15.07;;
11988;SDS011;6054;50.966;7.094;2023-05-10T05:16:46;53.53;;;16.98;;
11988;SDS011;6054;50.966;7.094;2023-05-10T05:19:12;33.15;;;15.50;;
11988;SDS011;6054;50.966;7.094;2023-05-10T05:21:39;46.60;;;15.73;;
11988;SDS011;6054;50.966;7.094;2023-05-10T05:24:06;35.47;;;15.52;;
11988;SDS011;6054;50.966;7.094;2023-05-10T05:26:33;45.50;;;16.45;;
11988;SDS011;6054;50.966;7.094;2023-05-10T05:29:01;58.08;;;17.73;;
11988;SDS011;6054;50.966;7.094;2023-05-10T05:31:28;49.08;;;16.52;;
11988;SDS011;6054;50.966;7.094;2023-05-10T05:33:55;54.65;;;16.67;;
11988;SDS011;6054;50.966;7.094;2023-05-10T05:36:22;34.20;;;15.00;;
11988;SDS011;6054;50.966;7.094;2023-05-10T05:38:49;35.95;;;16.33;;
11988;SDS011;6054;50.966;7.094;2023-05-10T05:41:16;30.38;;;14.73;;
11988;SDS011;6054;50.966;7.094;2023-05-10T05:43:42;26.50;;;14.35;;
11988;SDS011;6054;50.966;7.094;2023-05-10T05:46:11;29.25;;;14.20;;
11988;SDS011;6054;50.966;7.094;2023-05-10T05:48:37;29.33;;;14.27;;
11988;SDS011;6054;50.966;7.094;2023-05-10T05:51:04;24.92;;;13.38;;
11988;SDS011;6054;50.966;7.094;2023-05-10T05:53:31;33.08;;;15.02;;
11988;SDS011;6054;50.966;7.094;2023-05-10T05:55:58;37.33;;;15.25;;
11988;SDS011;6054;50.966;7.094;2023-05-10T05:58:25;26.35;;;13.27;;
11988;SDS011;6054;50.966;7.094;2023-05-10T06:00:52;28.17;;;14.00;;
11988;SDS011;6054;50.966;7.094;2023-05-10T06:03:20;30.33;;;13.95;;
11988;SDS011;6054;50.966;7.094;2023-05-10T06:05:47;40.40;;;15.15;;
11988;SDS011;6054;50.966;7.094;2023-05-10T06:08:14;39.72;;;15.70;;
11988;SDS011;6054;50.966;7.094;2023-05-10T06:10:41;47.55;;;15.73;;
11988;SDS011;6054;50.966;7.094;2023-05-10T06:13:07;38.22;;;14.80;;
11988;SDS011;6054;50.966;7.094;2023-05-10T06:15:34;34.45;;;14.32;;
11988;SDS011;6054;50.966;7.094;2023-05-10T06:18:01;53.75;;;15.98;;
11988;SDS011;6054;50.966;7.094;2023-05-10T06:20:29;27.88;;;12.73;;
11988;SDS011;6054;50.966;7.094;2023-05-10T06:22:57;32.28;;;13.85;;
11988;SDS011;6054;50.966;7.094;2023-05-10T06:25:24;23.42;;;12.35;;
11988;SDS011;6054;50.966;7.094;2023-05-10T06:27:51;24.67;;;12.90;;
11988;SDS011;6054;50.966;7.094;2023-05-10T06:30:22;28.35;;;12.38;;
11988;SDS011;6054;50.966;7.094;2023-05-10T06:32:52;23.05;;;12.05;;
11988;SDS011;6054;50.966;7.094;2023-05-10T06:35:19;26.17;;;12.25;;
11988;SDS011;6054;50.966;7.094;2023-05-10T06:37:47;26.67;;;12.45;;
11988;SDS011;6054;50.966;7.094;2023-05-10T06:40:14;26.48;;;12.25;;
11988;SDS011;6054;50.966;7.094;2023-05-10T06:42:41;30.80;;;11.82;;
11988;SDS011;6054;50.966;7.094;2023-05-10T06:45:10;26.45;;;11.88;;
11988;SDS011;6054;50.966;7.094;2023-05-10T06:47:37;25.27;;;11.45;;
11988;SDS011;6054;50.966;7.094;2023-05-10T06:50:04;19.77;;;10.45;;
11988;SDS011;6054;50.966;7.094;2023-05-10T06:52:31;29.23;;;12.30;;
11988;SDS011;6054;50.966;7.094;2023-05-10T06:55:00;21.05;;;11.15;;
11988;SDS011;6054;50.966;7.094;2023-05-10T06:57:28;20.20;;;11.55;;
11988;SDS011;6054;50.966;7.094;2023-05-10T06:59:55;24.90;;;11.30;;
11988;SDS011;6054;50.966;7.094;2023-05-10T07:02:22;38.33;;;13.40;;
11988;SDS011;6054;50.966;7.094;2023-05-10T07:04:49;29.65;;;12.30;;
11988;SDS011;6054;50.966;7.094;2023-05-10T07:07:16;29.10;;;12.57;;
11988;SDS011;6054;50.966;7.094;2023-05-10T07:09:43;24.80;;;12.38;;
11988;SDS011;6054;50.966;7.094;2023-05-10T07:12:12;23.35;;;12.63;;
11988;SDS011;6054;50.966;7.094;2023-05-10T07:14:39;27.48;;;13.07;;
11988;SDS011;6054;50.966;7.094;2023-05-10T07:17:05;25.65;;;12.15;;
11988;SDS011;6054;50.966;7.094;2023-05-10T07:19:32;26.15;;;11.95;;
11988;SDS011;6054;50.966;7.094;2023-05-10T07:21:59;26.60;;;12.98;;
11988;SDS011;6054;50.966;7.094;2023-05-10T07:24:26;25.95;;;13.80;;
11988;SDS011;6054;50.966;7.094;2023-05-10T07:26:53;29.55;;;13.38;;
11988;SDS011;6054;50.966;7.094;2023-05-10T07:29:21;32.28;;;14.05;;
11988;SDS011;6054;50.966;7.094;2023-05-10T07:31:48;43.75;;;15.27;;
11988;SDS011;6054;50.966;7.094;2023-05-10T07:34:15;33.78;;;14.25;;
11988;SDS011;6054;50.966;7.094;2023-05-10T07:36:41;41.08;;;14.43;;
11988;SDS011;6054;50.966;7.094;2023-05-10T07:39:08;37.15;;;14.98;;
11988;SDS011;6054;50.966;7.094;2023-05-10T07:41:35;34.65;;;13.82;;
11988;SDS011;6054;50.966;7.094;2023-05-10T07:44:03;30.35;;;14.25;;
11988;SDS011;6054;50.966;7.094;2023-05-10T07:46:31;33.85;;;13.52;;
11988;SDS011;6054;50.966;7.094;2023-05-10T07:48:58;30.55;;;13.27;;
11988;SDS011;6054;50.966;7.094;2023-05-10T07:51:25;47.25;;;14.95;;
11988;SDS011;6054;50.966;7.094;2023-05-10T07:53:52;35.53;;;13.48;;
11988;SDS011;6054;50.966;7.094;2023-05-10T07:56:20;30.80;;;13.88;;
11988;SDS011;6054;50.966;7.094;2023-05-10T07:58:48;42.08;;;14.93;;
11988;SDS011;6054;50.966;7.094;2023-05-10T08:01:15;40.50;;;14.65;;
11988;SDS011;6054;50.966;7.094;2023-05-10T08:03:43;36.28;;;13.32;;
11988;SDS011;6054;50.966;7.094;2023-05-10T08:06:12;32.60;;;13.23;;
11988;SDS011;6054;50.966;7.094;2023-05-10T08:08:39;35.45;;;12.88;;
11988;SDS011;6054;50.966;7.094;2023-05-10T08:11:06;31.13;;;12.95;;
11988;SDS011;6054;50.966;7.094;2023-05-10T08:13:33;34.45;;;13.65;;
11988;SDS011;6054;50.966;7.094;2023-05-10T08:16:00;26.35;;;12.50;;
11988;SDS011;6054;50.966;7.094;2023-05-10T08:18:27;27.52;;;12.23;;
11988;SDS011;6054;50.966;7.094;2023-05-10T08:20:55;33.50;;;13.15;;
11988;SDS011;6054;50.966;7.094;2023-05-10T08:23:22;29.70;;;13.75;;
11988;SDS011;6054;50.966;7.094;2023-05-10T08:25:48;30.50;;;12.85;;
11988;SDS011;6054;50.966;7.094;2023-05-10T08:28:15;31.25;;;12.18;;
11988;SDS011;6054;50.966;7.094;2023-05-10T08:30:42;22.65;;;10.95;;
11988;SDS011;6054;50.966;7.094;2023-05-10T08:33:09;24.50;;;11.38;;
11988;SDS011;6054;50.966;7.094;2023-05-10T08:35:35;36.13;;;13.38;;
11988;SDS011;6054;50.966;7.094;2023-05-10T08:38:03;24.15;;;10.60;;
11988;SDS011;6054;50.966;7.094;2023-05-10T08:40:30;29.10;;;12.07;;
11988;SDS011;6054;50.966;7.094;2023-05-10T08:42:58;19.98;;;10.40;;
11988;SDS011;6054;50.966;7.094;2023-05-10T08:45:31;26.92;;;11.60;;
11988;SDS011;6054;50.966;7.094;2023-05-10T08:48:01;22.05;;;10.50;;
11988;SDS011;6054;50.966;7.094;2023-05-10T08:50:31;24.10;;;11.10;;
11988;SDS011;6054;50.966;7.094;2023-05-10T08:52:59;22.10;;;10.70;;
11988;SDS011;6054;50.966;7.094;2023-05-10T08:55:31;17.02;;;9.40;;
11988;SDS011;6054;50.966;7.094;2023-05-10T08:57:59;14.13;;;8.38;;
11988;SDS011;6054;50.966;7.094;2023-05-10T09:00:25;17.83;;;9.02;;
11988;SDS011;6054;50.966;7.094;2023-05-10T09:02:52;17.15;;;9.60;;
11988;SDS011;6054;50.966;7.094;2023-05-10T09:05:20;19.65;;;10.38;;
11988;SDS011;6054;50.966;7.094;2023-05-10T09:07:47;19.98;;;9.48;;
11988;SDS011;6054;50.966;7.094;2023-05-10T09:10:13;13.60;;;8.57;;
11988;SDS011;6054;50.966;7.094;2023-05-10T09:12:43;17.30;;;9.65;;
11988;SDS011;6054;50.966;7.094;2023-05-10T09:15:11;16.08;;;10.05;;
11988;SDS011;6054;50.966;7.094;2023-05-10T09:17:40;16.52;;;9.88;;
11988;SDS011;6054;50.966;7.094;2023-05-10T09:20:10;22.73;;;11.27;;
11988;SDS011;6054;50.966;7.094;2023-05-10T09:22:36;31.58;;;10.88;;
11988;SDS011;6054;50.966;7.094;2023-05-10T09:25:04;36.05;;;12.48;;
11988;SDS011;6054;50.966;7.094;2023-05-10T09:27:32;52.88;;;13.48;;
11988;SDS011;6054;50.966;7.094;2023-05-10T09:30:00;42.00;;;13.07;;
11988;SDS011;6054;50.966;7.094;2023-05-10T09:32:35;26.25;;;11.85;;
11988;SDS011;6054;50.966;7.094;2023-05-10T09:35:07;46.80;;;14.25;;
11988;SDS011;6054;50.966;7.094;2023-05-10T09:37:34;29.27;;;13.20;;
11988;SDS011;6054;50.966;7.094;2023-05-10T09:40:04;34.25;;;13.43;;
11988;SDS011;6054;50.966;7.094;2023-05-10T09:42:32;38.33;;;14.38;;
11988;SDS011;6054;50.966;7.094;2023-05-10T09:45:01;28.33;;;13.52;;
11988;SDS011;6054;50.966;7.094;2023-05-10T09:47:29;26.92;;;13.10;;
11988;SDS011;6054;50.966;7.094;2023-05-10T09:49:58;35.85;;;15.23;;
11988;SDS011;6054;50.966;7.094;2023-05-10T09:52:28;38.80;;;14.48;;
11988;SDS011;6054;50.966;7.094;2023-05-10T09:54:56;35.05;;;14.95;;
11988;SDS011;6054;50.966;7.094;2023-05-10T09:57:23;41.08;;;16.75;;
11988;SDS011;6054;50.966;7.094;2023-05-10T09:59:50;36.03;;;16.40;;
11988;SDS011;6054;50.966;7.094;2023-05-10T10:02:20;32.03;;;15.77;;
11988;SDS011;6054;50.966;7.094;2023-05-10T10:04:54;36.25;;;15.57;;
11988;SDS011;6054;50.966;7.094;2023-05-10T10:07:22;35.60;;;16.52;;
11988;SDS011;6054;50.966;7.094;2023-05-10T10:09:50;38.60;;;16.95;;
11988;SDS011;6054;50.966;7.094;2023-05-10T10:12:17;36.28;;;16.52;;
11988;SDS011;6054;50.966;7.094;2023-05-10T10:14:45;40.50;;;17.83;;
11988;SDS011;6054;50.966;7.094;2023-05-10T10:17:13;51.20;;;18.65;;
11988;SDS011;6054;50.966;7.094;2023-05-10T10:19:41;56.03;;;19.00;;
11988;SDS011;6054;50.966;7.094;2023-05-10T10:22:08;37.80;;;17.70;;
11988;SDS011;6054;50.966;7.094;2023-05-10T10:24:37;35.10;;;16.83;;
11988;SDS011;6054;50.966;7.094;2023-05-10T10:27:07;43.92;;;18.63;;
11988;SDS011;6054;50.966;7.094;2023-05-10T10:29:44;46.78;;;17.85;;
11988;SDS011;6054;50.966;7.094;2023-05-10T10:32:19;37.45;;;16.48;;
11988;SDS011;6054;50.966;7.094;2023-05-10T10:34:53;47.88;;;18.13;;
11988;SDS011;6054;50.966;7.094;2023-05-10T10:37:21;57.17;;;18.42;;
11988;SDS011;6054;50.966;7.094;2023-05-10T10:39:48;48.42;;;18.65;;
11988;SDS011;6054;50.966;7.094;2023-05-10T10:42:15;41.83;;;17.35;;
11988;SDS011;6054;50.966;7.094;2023-05-10T10:45:12;26.45;;;15.15;;
11988;SDS011;6054;50.966;7.094;2023-05-10T10:47:39;28.42;;;14.75;;
11988;SDS011;6054;50.966;7.094;2023-05-10T10:50:09;26.52;;;15.25;;
11988;SDS011;6054;50.966;7.094;2023-05-10T10:52:37;21.83;;;14.60;;
11988;SDS011;6054;50.966;7.094;2023-05-10T10:55:05;20.40;;;13.80;;
11988;SDS011;6054;50.966;7.094;2023-05-10T10:57:42;17.25;;;12.65;;
11988;SDS011;6054;50.966;7.094;2023-05-10T11:00:22;16.98;;;11.25;;
11988;SDS011;6054;50.966;7.094;2023-05-10T11:02:51;17.13;;;11.68;;
11988;SDS011;6054;50.966;7.094;2023-05-10T11:05:24;16.48;;;11.02;;
11988;SDS011;6054;50.966;7.094;2023-05-10T11:07:59;17.48;;;11.40;;
11988;SDS011;6054;50.966;7.094;2023-05-10T11:10:32;18.95;;;11.23;;
11988;SDS011;6054;50.966;7.094;2023-05-10T11:12:59;16.20;;;11.30;;
11988;SDS011;6054;50.966;7.094;2023-05-10T11:15:29;16.02;;;11.15;;
11988;SDS011;6054;50.966;7.094;2023-05-10T11:17:56;16.40;;;11.35;;
11988;SDS011;6054;50.966;7.094;2023-05-10T11:20:25;17.05;;;10.88;;
11988;SDS011;6054;50.966;7.094;2023-05-10T11:22:58;15.63;;;9.95;;
11988;SDS011;6054;50.966;7.094;2023-05-10T11:25:41;12.50;;;8.93;;
11988;SDS011;6054;50.966;7.094;2023-05-10T11:28:09;12.45;;;8.85;;
11988;SDS011;6054;50.966;7.094;2023-05-10T11:30:35;11.40;;;8.93;;
11988;SDS011;6054;50.966;7.094;2023-05-10T11:33:04;14.25;;;8.43;;
11988;SDS011;6054;50.966;7.094;2023-05-10T11:35:33;11.23;;;9.07;;
11988;SDS011;6054;50.966;7.094;2023-05-10T11:38:04;13.95;;;8.57;;
11988;SDS011;6054;50.966;7.094;2023-05-10T11:40:35;12.05;;;9.02;;
11988;SDS011;6054;50.966;7.094;2023-05-10T11:43:07;11.00;;;7.72;;
11988;SDS011;6054;50.966;7.094;2023-05-10T11:45:35;12.57;;;7.72;;
11988;SDS011;6054;50.966;7.094;2023-05-10T11:48:02;13.40;;;7.38;;
11988;SDS011;6054;50.966;7.094;2023-05-10T11:50:29;10.13;;;7.22;;
11988;SDS011;6054;50.966;7.094;2023-05-10T11:52:57;8.70;;;6.45;;
11988;SDS011;6054;50.966;7.094;2023-05-10T11:55:25;9.40;;;6.18;;
11988;SDS011;6054;50.966;7.094;2023-05-10T11:57:52;7.55;;;5.80;;
11988;SDS011;6054;50.966;7.094;2023-05-10T12:00:19;7.18;;;6.20;;
11988;SDS011;6054;50.966;7.094;2023-05-10T12:02:46;7.65;;;5.97;;
11988;SDS011;6054;50.966;7.094;2023-05-10T12:05:13;8.52;;;5.60;;
11988;SDS011;6054;50.966;7.094;2023-05-10T12:07:40;6.45;;;5.50;;
11988;SDS011;6054;50.966;7.094;2023-05-10T12:10:09;7.45;;;6.05;;
11988;SDS011;6054;50.966;7.094;2023-05-10T12:12:39;7.50;;;5.88;;
11988;SDS011;6054;50.966;7.094;2023-05-10T12:15:11;5.97;;;5.18;;
11988;SDS011;6054;50.966;7.094;2023-05-10T12:17:38;4.55;;;4.15;;
11988;SDS011;6054;50.966;7.094;2023-05-10T12:20:15;3.72;;;3.33;;
11988;SDS011;6054;50.966;7.094;2023-05-10T12:22:44;3.97;;;3.50;;
11988;SDS011;6054;50.966;7.094;2023-05-10T12:25:13;4.20;;;3.05;;
11988;SDS011;6054;50.966;7.094;2023-05-10T12:27:39;2.70;;;2.35;;
11988;SDS011;6054;50.966;7.094;2023-05-10T12:30:07;4.88;;;2.55;;
11988;SDS011;6054;50.966;7.094;2023-05-10T12:32:38;2.10;;;2.00;;
11988;SDS011;6054;50.966;7.094;2023-05-10T12:35:06;1.80;;;1.70;;
11988;SDS011;6054;50.966;7.094;2023-05-10T12:37:33;2.00;;;1.90;;
11988;SDS011;6054;50.966;7.094;2023-05-10T12:40:04;3.42;;;2.35;;
11988;SDS011;6054;50.966;7.094;2023-05-10T12:42:34;2.67;;;1.88;;
11988;SDS011;6054;50.966;7.094;2023-05-10T12:45:01;2.90;;;2.70;;
11988;SDS011;6054;50.966;7.094;2023-05-10T12:47:28;2.80;;;2.60;;
11988;SDS011;6054;50.966;7.094;2023-05-10T12:49:55;3.53;;;3.05;;
11988;SDS011;6054;50.966;7.094;2023-05-10T12:52:22;4.45;;;2.83;;
11988;SDS011;6054;50.966;7.094;2023-05-10T12:54:49;9.07;;;2.75;;
11988;SDS011;6054;50.966;7.094;2023-05-10T12:57:15;2.67;;;2.55;;
11988;SDS011;6054;50.966;7.094;2023-05-10T12:59:44;3.05;;;2.85;;
11988;SDS011;6054;50.966;7.094;2023-05-10T13:02:10;3.22;;;2.90;;
11988;SDS011;6054;50.966;7.094;2023-05-10T13:04:38;3.47;;;3.17;;
11988;SDS011;6054;50.966;7.094;2023-05-10T13:07:05;3.47;;;3.22;;
11988;SDS011;6054;50.966;7.094;2023-05-10T13:09:32;3.80;;;3.10;;
11988;SDS011;6054;50.966;7.094;2023-05-10T13:11:58;6.57;;;2.63;;
11988;SDS011;6054;50.966;7.094;2023-05-10T13:14:25;2.78;;;2.58;;
11988;SDS011;6054;50.966;7.094;2023-05-10T13:16:54;2.45;;;2.13;;
11988;SDS011;6054;50.966;7.094;2023-05-10T13:19:20;2.42;;;2.22;;
11988;SDS011;6054;50.966;7.094;2023-05-10T13:21:47;2.55;;;2.35;;
11988;SDS011;6054;50.966;7.094;2023-05-10T13:24:14;3.30;;;1.85;;
11988;SDS011;6054;50.966;7.094;2023-05-10T13:26:42;2.05;;;1.75;;
11988;SDS011;6054;50.966;7.094;2023-05-10T13:29:08;2.53;;;2.00;;
11988;SDS011;6054;50.966;7.094;2023-05-10T13:31:35;1.98;;;1.80;;
11988;SDS011;6054;50.966;7.094;2023-05-10T13:34:04;1.88;;;1.77;;
11988;SDS011;6054;50.966;7.094;2023-05-10T13:36:32;1.70;;;1.60;;
11988;SDS011;6054;50.966;7.094;2023-05-10T13:38:58;1.85;;;1.75;;
11988;SDS011;6054;50.966;7.094;2023-05-10T13:41:27;1.70;;;1.60;;
11988;SDS011;6054;50.966;7.094;2023-05-10T13:43:54;1.88;;;1.70;;
11988;SDS011;6054;50.966;7.094;2023-05-10T13:46:20;2.70;;;1.98;;
11988;SDS011;6054;50.966;7.094;2023-05-10T13:48:47;1.92;;;1.83;;
11988;SDS011;6054;50.966;7.094;2023-05-10T13:51:15;2.67;;;1.75;;
11988;SDS011;6054;50.966;7.094;2023-05-10T13:53:42;1.70;;;1.60;;
11988;SDS011;6054;50.966;7.094;2023-05-10T13:56:09;4.40;;;1.73;;
11988;SDS011;6054;50.966;7.094;2023-05-10T13:58:35;1.67;;;1.58;;
11988;SDS011;6054;50.966;7.094;2023-05-10T14:01:02;1.70;;;1.27;;
11988;SDS011;6054;50.966;7.094;2023-05-10T14:03:29;1.45;;;1.40;;
11988;SDS011;6054;50.966;7.094;2023-05-10T14:05:57;1.55;;;0.80;;
11988;SDS011;6054;50.966;7.094;2023-05-10T14:08:25;1.13;;;1.08;;
11988;SDS011;6054;50.966;7.094;2023-05-10T14:10:53;1.27;;;1.25;;
11988;SDS011;6054;50.966;7.094;2023-05-10T14:13:21;1.20;;;1.10;;
11988;SDS011;6054;50.966;7.094;2023-05-10T14:15:48;2.55;;;1.27;;
11988;SDS011;6054;50.966;7.094;2023-05-10T14:18:14;1.00;;;1.00;;
11988;SDS011;6054;50.966;7.094;2023-05-10T14:20:41;1.40;;;1.23;;
11988;SDS011;6054;50.966;7.094;2023-05-10T14:23:08;1.30;;;1.30;;
11988;SDS011;6054;50.966;7.094;2023-05-10T14:25:36;1.20;;;1.20;;
11988;SDS011;6054;50.966;7.094;2023-05-10T14:28:03;2.03;;;1.10;;
11988;SDS011;6054;50.966;7.094;2023-05-10T14:30:31;5.78;;;1.17;;
11988;SDS011;6054;50.966;7.094;2023-05-10T14:32:57;1.40;;;1.15;;
11988;SDS011;6054;50.966;7.094;2023-05-10T14:35:26;1.52;;;1.33;;
11988;SDS011;6054;50.966;7.094;2023-05-10T14:37:52;1.50;;;1.10;;
11988;SDS011;6054;50.966;7.094;2023-05-10T14:40:20;3.15;;;1.50;;
11988;SDS011;6054;50.966;7.094;2023-05-10T14:42:48;1.65;;;1.33;;
11988;SDS011;6054;50.966;7.094;2023-05-10T14:45:14;1.65;;;1.55;;
11988;SDS011;6054;50.966;7.094;2023-05-10T14:47:41;1.83;;;1.27;;
11988;SDS011;6054;50.966;7.094;2023-05-10T14:50:08;2.42;;;1.55;;
11988;SDS011;6054;50.966;7.094;2023-05-10T14:52:35;1.30;;;1.23;;